sensor_id;sensor_type;location;lat;lon;timestamp;P1;durP1;ratioP1;P2;durP2;ratioP2
40541;SDS011;49288;52.194;5.676;2023-02-13T00:03:08;49.10;;;17.40;;
40541;SDS011;49288;52.194;5.676;2023-02-13T00:08:11;45.65;;;15.88;;
40541;SDS011;49288;52.194;5.676;2023-02-13T00:13:13;42.97;;;16.98;;
40541;SDS011;49288;52.194;5.676;2023-02-13T00:18:17;47.67;;;16.17;;
40541;SDS011;49288;52.194;5.676;2023-02-13T00:23:19;48.92;;;17.50;;
40541;SDS011;49288;52.194;5.676;2023-02-13T00:28:25;56.05;;;18.23;;
40541;SDS011;49288;52.194;5.676;2023-02-13T00:33:28;43.35;;;16.75;;
40541;SDS011;49288;52.194;5.676;2023-02-13T00:38:30;46.35;;;17.77;;
40541;SDS011;49288;52.194;5.676;2023-02-13T00:43:33;54.00;;;18.92;;
40541;SDS011;49288;52.194;5.676;2023-02-13T00:48:36;53.05;;;19.42;;
40541;SDS011;49288;52.194;5.676;2023-02-13T00:53:39;55.35;;;19.05;;
40541;SDS011;49288;52.194;5.676;2023-02-13T00:58:42;59.47;;;21.35;;
40541;SDS011;49288;52.194;5.676;2023-02-13T01:03:46;58.17;;;20.77;;
40541;SDS011;49288;52.194;5.676;2023-02-13T01:08:49;52.65;;;19.08;;
40541;SDS011;49288;52.194;5.676;2023-02-13T01:13:52;57.97;;;20.40;;
40541;SDS011;49288;52.194;5.676;2023-02-13T01:18:55;61.53;;;22.00;;
40541;SDS011;49288;52.194;5.676;2023-02-13T01:24:01;54.42;;;19.73;;
40541;SDS011;49288;52.194;5.676;2023-02-13T01:29:05;58.58;;;20.17;;
40541;SDS011;49288;52.194;5.676;2023-02-13T01:34:08;53.80;;;19.73;;
40541;SDS011;49288;52.194;5.676;2023-02-13T01:39:11;59.47;;;21.73;;
40541;SDS011;49288;52.194;5.676;2023-02-13T01:50:40;64.70;;;21.55;;
40541;SDS011;49288;52.194;5.676;2023-02-13T01:55:19;58.28;;;19.65;;
40541;SDS011;49288;52.194;5.676;2023-02-13T02:00:21;57.90;;;21.02;;
40541;SDS011;49288;52.194;5.676;2023-02-13T02:05:27;61.70;;;21.25;;
40541;SDS011;49288;52.194;5.676;2023-02-13T02:10:32;64.68;;;21.95;;
40541;SDS011;49288;52.194;5.676;2023-02-13T02:15:40;60.63;;;22.20;;
40541;SDS011;49288;52.194;5.676;2023-02-13T02:26:24;64.32;;;22.85;;
40541;SDS011;49288;52.194;5.676;2023-02-13T02:36:57;55.97;;;20.95;;
40541;SDS011;49288;52.194;5.676;2023-02-13T02:42:24;65.30;;;21.60;;
40541;SDS011;49288;52.194;5.676;2023-02-13T02:47:33;60.65;;;22.17;;
40541;SDS011;49288;52.194;5.676;2023-02-13T02:53:03;62.78;;;22.20;;
40541;SDS011;49288;52.194;5.676;2023-02-13T03:04:15;69.88;;;22.52;;
40541;SDS011;49288;52.194;5.676;2023-02-13T03:09:48;78.22;;;23.13;;
40541;SDS011;49288;52.194;5.676;2023-02-13T03:15:12;65.70;;;22.65;;
40541;SDS011;49288;52.194;5.676;2023-02-13T03:20:19;71.90;;;20.20;;
40541;SDS011;49288;52.194;5.676;2023-02-13T03:26:10;65.43;;;21.55;;
40541;SDS011;49288;52.194;5.676;2023-02-13T03:31:37;61.97;;;20.60;;
40541;SDS011;49288;52.194;5.676;2023-02-13T03:37:02;68.70;;;21.42;;
40541;SDS011;49288;52.194;5.676;2023-02-13T03:47:42;53.13;;;19.95;;
40541;SDS011;49288;52.194;5.676;2023-02-13T03:57:52;60.72;;;20.67;;
40541;SDS011;49288;52.194;5.676;2023-02-13T04:08:48;60.30;;;21.17;;
40541;SDS011;49288;52.194;5.676;2023-02-13T04:18:57;61.17;;;20.98;;
40541;SDS011;49288;52.194;5.676;2023-02-13T04:24:02;62.42;;;20.25;;
40541;SDS011;49288;52.194;5.676;2023-02-13T04:29:05;67.82;;;21.33;;
40541;SDS011;49288;52.194;5.676;2023-02-13T04:34:08;62.70;;;19.75;;
40541;SDS011;49288;52.194;5.676;2023-02-13T04:39:11;67.95;;;21.65;;
40541;SDS011;49288;52.194;5.676;2023-02-13T04:44:14;72.18;;;21.88;;
40541;SDS011;49288;52.194;5.676;2023-02-13T04:49:17;65.05;;;19.98;;
40541;SDS011;49288;52.194;5.676;2023-02-13T04:54:19;66.32;;;21.45;;
40541;SDS011;49288;52.194;5.676;2023-02-13T04:59:22;66.07;;;21.88;;
40541;SDS011;49288;52.194;5.676;2023-02-13T05:04:25;66.28;;;21.08;;
40541;SDS011;49288;52.194;5.676;2023-02-13T05:09:30;64.30;;;21.08;;
40541;SDS011;49288;52.194;5.676;2023-02-13T05:14:32;67.50;;;20.77;;
40541;SDS011;49288;52.194;5.676;2023-02-13T05:19:35;69.07;;;21.80;;
40541;SDS011;49288;52.194;5.676;2023-02-13T05:24:38;68.68;;;22.40;;
40541;SDS011;49288;52.194;5.676;2023-02-13T05:29:41;69.25;;;22.48;;
40541;SDS011;49288;52.194;5.676;2023-02-13T05:34:44;61.95;;;21.63;;
40541;SDS011;49288;52.194;5.676;2023-02-13T05:39:47;69.05;;;22.33;;
40541;SDS011;49288;52.194;5.676;2023-02-13T05:44:50;64.95;;;20.88;;
40541;SDS011;49288;52.194;5.676;2023-02-13T05:49:53;69.35;;;23.35;;
40541;SDS011;49288;52.194;5.676;2023-02-13T05:54:55;79.70;;;24.10;;
40541;SDS011;49288;52.194;5.676;2023-02-13T05:59:59;68.32;;;22.08;;
40541;SDS011;49288;52.194;5.676;2023-02-13T06:05:02;70.78;;;23.77;;
40541;SDS011;49288;52.194;5.676;2023-02-13T06:10:06;68.13;;;21.63;;
40541;SDS011;49288;52.194;5.676;2023-02-13T06:15:09;68.45;;;22.00;;
40541;SDS011;49288;52.194;5.676;2023-02-13T06:20:11;72.43;;;21.38;;
40541;SDS011;49288;52.194;5.676;2023-02-13T06:25:14;67.72;;;22.30;;
40541;SDS011;49288;52.194;5.676;2023-02-13T06:30:17;72.32;;;23.63;;
40541;SDS011;49288;52.194;5.676;2023-02-13T06:35:23;66.55;;;22.60;;
40541;SDS011;49288;52.194;5.676;2023-02-13T06:40:27;77.20;;;24.35;;
40541;SDS011;49288;52.194;5.676;2023-02-13T06:45:29;61.80;;;19.95;;
40541;SDS011;49288;52.194;5.676;2023-02-13T06:50:32;67.95;;;20.98;;
40541;SDS011;49288;52.194;5.676;2023-02-13T06:55:35;68.22;;;21.83;;
40541;SDS011;49288;52.194;5.676;2023-02-13T07:05:43;66.40;;;21.63;;
40541;SDS011;49288;52.194;5.676;2023-02-13T07:10:46;68.28;;;21.70;;
40541;SDS011;49288;52.194;5.676;2023-02-13T07:15:49;83.95;;;25.30;;
40541;SDS011;49288;52.194;5.676;2023-02-13T07:20:51;79.85;;;25.73;;
40541;SDS011;49288;52.194;5.676;2023-02-13T07:25:54;83.25;;;25.98;;
40541;SDS011;49288;52.194;5.676;2023-02-13T07:31:03;87.20;;;25.85;;
40541;SDS011;49288;52.194;5.676;2023-02-13T07:36:07;81.20;;;25.13;;
40541;SDS011;49288;52.194;5.676;2023-02-13T07:41:11;77.83;;;25.60;;
40541;SDS011;49288;52.194;5.676;2023-02-13T07:46:14;76.22;;;24.42;;
40541;SDS011;49288;52.194;5.676;2023-02-13T07:51:16;83.15;;;27.77;;
40541;SDS011;49288;52.194;5.676;2023-02-13T07:56:21;86.00;;;27.47;;
40541;SDS011;49288;52.194;5.676;2023-02-13T08:01:24;92.10;;;30.08;;
40541;SDS011;49288;52.194;5.676;2023-02-13T08:06:29;86.83;;;29.97;;
40541;SDS011;49288;52.194;5.676;2023-02-13T08:11:31;87.03;;;28.50;;
40541;SDS011;49288;52.194;5.676;2023-02-13T08:16:57;88.65;;;29.27;;
40541;SDS011;49288;52.194;5.676;2023-02-13T08:22:01;83.28;;;28.00;;
40541;SDS011;49288;52.194;5.676;2023-02-13T08:27:05;96.68;;;33.28;;
40541;SDS011;49288;52.194;5.676;2023-02-13T08:32:08;87.63;;;30.33;;
40541;SDS011;49288;52.194;5.676;2023-02-13T08:37:11;87.25;;;30.70;;
40541;SDS011;49288;52.194;5.676;2023-02-13T08:42:13;88.78;;;30.20;;
40541;SDS011;49288;52.194;5.676;2023-02-13T08:47:17;89.15;;;33.15;;
40541;SDS011;49288;52.194;5.676;2023-02-13T08:52:20;88.65;;;30.33;;
40541;SDS011;49288;52.194;5.676;2023-02-13T08:57:23;91.07;;;31.80;;
40541;SDS011;49288;52.194;5.676;2023-02-13T09:02:26;91.97;;;35.20;;
40541;SDS011;49288;52.194;5.676;2023-02-13T09:07:29;90.65;;;31.92;;
40541;SDS011;49288;52.194;5.676;2023-02-13T09:12:35;86.40;;;30.63;;
40541;SDS011;49288;52.194;5.676;2023-02-13T09:17:40;79.97;;;27.58;;
40541;SDS011;49288;52.194;5.676;2023-02-13T09:22:42;76.45;;;28.70;;
40541;SDS011;49288;52.194;5.676;2023-02-13T09:27:45;83.45;;;30.00;;
40541;SDS011;49288;52.194;5.676;2023-02-13T09:32:48;77.95;;;28.92;;
40541;SDS011;49288;52.194;5.676;2023-02-13T09:37:53;73.10;;;29.08;;
40541;SDS011;49288;52.194;5.676;2023-02-13T09:48:28;62.60;;;23.80;;
40541;SDS011;49288;52.194;5.676;2023-02-13T09:53:35;70.13;;;27.20;;
40541;SDS011;49288;52.194;5.676;2023-02-13T09:58:43;72.85;;;26.90;;
40541;SDS011;49288;52.194;5.676;2023-02-13T10:09:09;62.47;;;25.58;;
40541;SDS011;49288;52.194;5.676;2023-02-13T10:14:22;71.97;;;28.42;;
40541;SDS011;49288;52.194;5.676;2023-02-13T10:19:34;64.60;;;28.65;;
40541;SDS011;49288;52.194;5.676;2023-02-13T10:29:55;72.18;;;27.48;;
40541;SDS011;49288;52.194;5.676;2023-02-13T10:35:16;69.97;;;30.92;;
40541;SDS011;49288;52.194;5.676;2023-02-13T10:40:22;71.38;;;30.55;;
40541;SDS011;49288;52.194;5.676;2023-02-13T10:50:59;63.83;;;29.67;;
40541;SDS011;49288;52.194;5.676;2023-02-13T11:01:38;60.60;;;28.35;;
40541;SDS011;49288;52.194;5.676;2023-02-13T11:12:24;68.20;;;32.47;;
40541;SDS011;49288;52.194;5.676;2023-02-13T11:17:31;63.42;;;30.38;;
40541;SDS011;49288;52.194;5.676;2023-02-13T11:22:38;62.65;;;29.92;;
40541;SDS011;49288;52.194;5.676;2023-02-13T11:27:43;65.20;;;32.47;;
40541;SDS011;49288;52.194;5.676;2023-02-13T11:33:01;68.47;;;33.95;;
40541;SDS011;49288;52.194;5.676;2023-02-13T11:38:21;69.03;;;30.42;;
40541;SDS011;49288;52.194;5.676;2023-02-13T11:43:27;69.13;;;31.77;;
40541;SDS011;49288;52.194;5.676;2023-02-13T11:48:31;64.28;;;31.33;;
40541;SDS011;49288;52.194;5.676;2023-02-13T11:53:35;65.40;;;30.92;;
40541;SDS011;49288;52.194;5.676;2023-02-13T11:58:40;56.70;;;29.33;;
40541;SDS011;49288;52.194;5.676;2023-02-13T12:04:05;55.25;;;29.73;;
40541;SDS011;49288;52.194;5.676;2023-02-13T12:14:26;49.40;;;25.67;;
40541;SDS011;49288;52.194;5.676;2023-02-13T12:19:38;64.43;;;30.88;;
40541;SDS011;49288;52.194;5.676;2023-02-13T12:30:28;50.35;;;25.85;;
40541;SDS011;49288;52.194;5.676;2023-02-13T13:08:14;55.85;;;27.40;;
40541;SDS011;49288;52.194;5.676;2023-02-13T13:18:45;54.65;;;29.65;;
40541;SDS011;49288;52.194;5.676;2023-02-13T13:29:04;40.85;;;21.58;;
40541;SDS011;49288;52.194;5.676;2023-02-13T13:34:22;52.78;;;28.73;;
40541;SDS011;49288;52.194;5.676;2023-02-13T13:50:02;39.13;;;21.67;;
40541;SDS011;49288;52.194;5.676;2023-02-13T13:55:08;42.15;;;24.45;;
40541;SDS011;49288;52.194;5.676;2023-02-13T14:01:46;45.20;;;26.10;;
40541;SDS011;49288;52.194;5.676;2023-02-13T14:11:47;42.85;;;25.35;;
40541;SDS011;49288;52.194;5.676;2023-02-13T14:16:49;43.97;;;24.45;;
40541;SDS011;49288;52.194;5.676;2023-02-13T14:21:52;45.03;;;25.58;;
40541;SDS011;49288;52.194;5.676;2023-02-13T14:26:56;38.30;;;22.90;;
40541;SDS011;49288;52.194;5.676;2023-02-13T14:32:13;42.78;;;24.20;;
40541;SDS011;49288;52.194;5.676;2023-02-13T14:37:31;46.63;;;26.75;;
40541;SDS011;49288;52.194;5.676;2023-02-13T14:42:38;43.58;;;25.98;;
40541;SDS011;49288;52.194;5.676;2023-02-13T14:47:48;45.83;;;26.20;;
40541;SDS011;49288;52.194;5.676;2023-02-13T14:52:58;47.65;;;25.50;;
40541;SDS011;49288;52.194;5.676;2023-02-13T14:58:06;37.38;;;22.70;;
40541;SDS011;49288;52.194;5.676;2023-02-13T15:03:30;43.88;;;25.40;;
40541;SDS011;49288;52.194;5.676;2023-02-13T15:08:47;45.17;;;26.23;;
40541;SDS011;49288;52.194;5.676;2023-02-13T15:19:48;46.13;;;26.40;;
40541;SDS011;49288;52.194;5.676;2023-02-13T15:24:52;45.55;;;26.73;;
40541;SDS011;49288;52.194;5.676;2023-02-13T15:29:59;45.83;;;25.05;;
40541;SDS011;49288;52.194;5.676;2023-02-13T15:40:35;45.90;;;25.25;;
40541;SDS011;49288;52.194;5.676;2023-02-13T15:45:40;45.47;;;25.35;;
40541;SDS011;49288;52.194;5.676;2023-02-13T15:55:59;49.25;;;25.92;;
40541;SDS011;49288;52.194;5.676;2023-02-13T16:01:04;41.65;;;25.15;;
40541;SDS011;49288;52.194;5.676;2023-02-13T16:06:12;44.80;;;24.95;;
40541;SDS011;49288;52.194;5.676;2023-02-13T16:21:48;46.20;;;25.90;;
40541;SDS011;49288;52.194;5.676;2023-02-13T16:26:52;47.03;;;27.13;;
40541;SDS011;49288;52.194;5.676;2023-02-13T16:32:02;50.05;;;25.65;;
40541;SDS011;49288;52.194;5.676;2023-02-13T16:37:24;44.47;;;24.83;;
40541;SDS011;49288;52.194;5.676;2023-02-13T16:47:34;52.55;;;26.40;;
40541;SDS011;49288;52.194;5.676;2023-02-13T16:52:37;48.13;;;25.10;;
40541;SDS011;49288;52.194;5.676;2023-02-13T16:57:40;47.47;;;24.95;;
40541;SDS011;49288;52.194;5.676;2023-02-13T17:02:45;49.92;;;25.42;;
40541;SDS011;49288;52.194;5.676;2023-02-13T17:07:51;49.67;;;24.70;;
40541;SDS011;49288;52.194;5.676;2023-02-13T17:12:57;55.30;;;27.83;;
40541;SDS011;49288;52.194;5.676;2023-02-13T17:18:03;47.95;;;24.83;;
40541;SDS011;49288;52.194;5.676;2023-02-13T17:23:06;49.00;;;24.55;;
40541;SDS011;49288;52.194;5.676;2023-02-13T17:28:13;49.65;;;24.45;;
40541;SDS011;49288;52.194;5.676;2023-02-13T17:33:22;48.17;;;25.15;;
40541;SDS011;49288;52.194;5.676;2023-02-13T17:38:29;50.15;;;23.92;;
40541;SDS011;49288;52.194;5.676;2023-02-13T17:43:32;53.35;;;25.83;;
40541;SDS011;49288;52.194;5.676;2023-02-13T17:48:34;47.13;;;23.95;;
40541;SDS011;49288;52.194;5.676;2023-02-13T17:53:37;53.17;;;25.42;;
40541;SDS011;49288;52.194;5.676;2023-02-13T17:58:41;53.20;;;23.33;;
40541;SDS011;49288;52.194;5.676;2023-02-13T18:03:45;54.92;;;24.88;;
40541;SDS011;49288;52.194;5.676;2023-02-13T18:08:47;53.45;;;25.65;;
40541;SDS011;49288;52.194;5.676;2023-02-13T18:13:50;57.67;;;25.73;;
40541;SDS011;49288;52.194;5.676;2023-02-13T18:18:53;60.30;;;26.33;;
40541;SDS011;49288;52.194;5.676;2023-02-13T18:23:58;54.65;;;24.35;;
40541;SDS011;49288;52.194;5.676;2023-02-13T18:29:02;59.78;;;25.08;;
40541;SDS011;49288;52.194;5.676;2023-02-13T18:34:06;51.08;;;24.35;;
40541;SDS011;49288;52.194;5.676;2023-02-13T18:39:08;57.63;;;24.77;;
40541;SDS011;49288;52.194;5.676;2023-02-13T18:44:11;68.32;;;28.73;;
40541;SDS011;49288;52.194;5.676;2023-02-13T18:49:29;59.70;;;25.80;;
40541;SDS011;49288;52.194;5.676;2023-02-13T18:54:32;60.42;;;25.60;;
40541;SDS011;49288;52.194;5.676;2023-02-13T18:59:37;61.85;;;27.67;;
40541;SDS011;49288;52.194;5.676;2023-02-13T19:04:39;66.55;;;28.98;;
40541;SDS011;49288;52.194;5.676;2023-02-13T19:09:43;63.75;;;27.52;;
40541;SDS011;49288;52.194;5.676;2023-02-13T19:14:46;56.95;;;24.83;;
40541;SDS011;49288;52.194;5.676;2023-02-13T19:19:49;59.08;;;25.98;;
40541;SDS011;49288;52.194;5.676;2023-02-13T19:24:52;68.63;;;27.88;;
40541;SDS011;49288;52.194;5.676;2023-02-13T19:29:56;62.10;;;25.87;;
40541;SDS011;49288;52.194;5.676;2023-02-13T19:34:59;57.65;;;25.13;;
40541;SDS011;49288;52.194;5.676;2023-02-13T19:40:02;67.13;;;26.63;;
40541;SDS011;49288;52.194;5.676;2023-02-13T19:45:05;62.75;;;26.25;;
40541;SDS011;49288;52.194;5.676;2023-02-13T19:50:10;66.18;;;26.27;;
40541;SDS011;49288;52.194;5.676;2023-02-13T19:55:12;57.80;;;24.77;;
40541;SDS011;49288;52.194;5.676;2023-02-13T20:00:15;58.83;;;24.17;;
40541;SDS011;49288;52.194;5.676;2023-02-13T20:05:19;64.90;;;26.92;;
40541;SDS011;49288;52.194;5.676;2023-02-13T20:10:22;64.97;;;27.15;;
40541;SDS011;49288;52.194;5.676;2023-02-13T20:15:25;68.90;;;26.13;;
40541;SDS011;49288;52.194;5.676;2023-02-13T20:20:28;55.83;;;23.33;;
40541;SDS011;49288;52.194;5.676;2023-02-13T20:25:33;64.95;;;24.92;;
40541;SDS011;49288;52.194;5.676;2023-02-13T20:30:40;65.43;;;24.63;;
40541;SDS011;49288;52.194;5.676;2023-02-13T20:35:43;61.90;;;24.58;;
40541;SDS011;49288;52.194;5.676;2023-02-13T20:40:46;60.58;;;23.77;;
40541;SDS011;49288;52.194;5.676;2023-02-13T20:45:49;73.10;;;27.73;;
40541;SDS011;49288;52.194;5.676;2023-02-13T20:50:59;79.05;;;28.73;;
40541;SDS011;49288;52.194;5.676;2023-02-13T20:56:03;79.97;;;28.52;;
40541;SDS011;49288;52.194;5.676;2023-02-13T21:01:21;72.55;;;27.48;;
40541;SDS011;49288;52.194;5.676;2023-02-13T21:06:32;71.60;;;25.95;;
40541;SDS011;49288;52.194;5.676;2023-02-13T21:11:38;81.75;;;27.38;;
40541;SDS011;49288;52.194;5.676;2023-02-13T21:16:43;74.28;;;26.80;;
40541;SDS011;49288;52.194;5.676;2023-02-13T21:21:46;64.47;;;23.98;;
40541;SDS011;49288;52.194;5.676;2023-02-13T21:26:50;67.20;;;25.50;;
40541;SDS011;49288;52.194;5.676;2023-02-13T21:31:53;69.63;;;25.73;;
40541;SDS011;49288;52.194;5.676;2023-02-13T21:36:55;77.63;;;26.42;;
40541;SDS011;49288;52.194;5.676;2023-02-13T21:41:58;71.25;;;26.25;;
40541;SDS011;49288;52.194;5.676;2023-02-13T21:47:01;70.20;;;25.60;;
40541;SDS011;49288;52.194;5.676;2023-02-13T21:52:07;72.40;;;26.67;;
40541;SDS011;49288;52.194;5.676;2023-02-13T21:57:10;66.68;;;24.80;;
40541;SDS011;49288;52.194;5.676;2023-02-13T22:02:13;64.80;;;23.45;;
40541;SDS011;49288;52.194;5.676;2023-02-13T22:07:15;81.70;;;28.63;;
40541;SDS011;49288;52.194;5.676;2023-02-13T22:12:18;67.30;;;25.88;;
40541;SDS011;49288;52.194;5.676;2023-02-13T22:17:21;77.22;;;24.63;;
40541;SDS011;49288;52.194;5.676;2023-02-13T22:22:25;76.57;;;25.42;;
40541;SDS011;49288;52.194;5.676;2023-02-13T22:27:28;71.07;;;26.45;;
40541;SDS011;49288;52.194;5.676;2023-02-13T22:32:31;65.38;;;22.10;;
40541;SDS011;49288;52.194;5.676;2023-02-13T22:37:34;62.55;;;23.48;;
40541;SDS011;49288;52.194;5.676;2023-02-13T22:42:37;70.63;;;24.25;;
40541;SDS011;49288;52.194;5.676;2023-02-13T22:47:39;79.35;;;27.42;;
40541;SDS011;49288;52.194;5.676;2023-02-13T22:52:42;78.75;;;26.85;;
40541;SDS011;49288;52.194;5.676;2023-02-13T22:57:44;66.93;;;23.80;;
40541;SDS011;49288;52.194;5.676;2023-02-13T23:02:50;64.93;;;23.52;;
40541;SDS011;49288;52.194;5.676;2023-02-13T23:07:53;72.50;;;24.48;;
40541;SDS011;49288;52.194;5.676;2023-02-13T23:12:56;72.38;;;23.67;;
40541;SDS011;49288;52.194;5.676;2023-02-13T23:17:58;67.47;;;23.48;;
40541;SDS011;49288;52.194;5.676;2023-02-13T23:23:14;69.55;;;24.23;;
40541;SDS011;49288;52.194;5.676;2023-02-13T23:28:18;72.90;;;22.83;;
40541;SDS011;49288;52.194;5.676;2023-02-13T23:33:20;66.67;;;22.17;;
40541;SDS011;49288;52.194;5.676;2023-02-13T23:38:23;66.10;;;22.60;;
40541;SDS011;49288;52.194;5.676;2023-02-13T23:43:44;68.25;;;22.45;;
40541;SDS011;49288;52.194;5.676;2023-02-13T23:48:47;71.30;;;24.05;;
40541;SDS011;49288;52.194;5.676;2023-02-13T23:53:50;72.32;;;25.63;;
40541;SDS011;49288;52.194;5.676;2023-02-13T23:58:57;61.25;;;22.70;;
